createdAt,value
2018-10-01T00:01:52.005Z,99736.00
2018-10-01T00:04:21.050Z,99735.00
2018-10-01T00:06:50.178Z,99729.00
2018-10-01T00:09:19.549Z,99730.00
2018-10-01T00:11:48.608Z,99727.00
2018-10-01T00:14:17.699Z,99723.00
2018-10-01T00:16:46.742Z,99725.00
2018-10-01T00:19:21.011Z,99726.00
2018-10-01T00:21:55.365Z,99732.00
2018-10-01T00:24:24.664Z,99740.00
2018-10-01T00:26:53.743Z,99741.00
2018-10-01T00:29:22.826Z,99739.00
2018-10-01T00:31:52.025Z,99740.00
2018-10-01T00:34:21.165Z,99738.00
2018-10-01T00:36:50.212Z,99734.00
2018-10-01T00:39:19.390Z,99735.00
2018-10-01T00:41:48.601Z,99732.00
2018-10-01T00:44:17.697Z,99731.00
2018-10-01T00:46:46.978Z,99729.00
2018-10-01T00:49:16.542Z,99727.00
2018-10-01T00:51:45.672Z,99720.00
2018-10-01T00:54:14.897Z,99726.00
2018-10-01T00:56:44.332Z,99724.00
2018-10-01T00:59:13.572Z,99724.00
2018-10-01T01:01:42.741Z,99723.00
2018-10-01T01:04:11.869Z,99718.00
2018-10-01T01:06:41.011Z,99717.00
2018-10-01T01:09:10.164Z,99712.00
2018-10-01T01:11:39.301Z,99709.00
2018-10-01T01:14:08.432Z,99713.00
2018-10-01T01:16:37.476Z,99707.00
2018-10-01T01:19:06.684Z,99707.00
2018-10-01T01:21:35.949Z,99704.00
2018-10-01T01:24:05.924Z,99712.00
2018-10-01T01:26:35.979Z,99718.00
2018-10-01T01:29:05.993Z,99713.00
2018-10-01T01:31:36.036Z,99716.00
2018-10-01T01:34:05.136Z,99722.00
2018-10-01T01:36:34.195Z,99724.00
2018-10-01T01:39:03.377Z,99722.00
2018-10-01T01:41:32.391Z,99726.00
2018-10-01T01:44:01.534Z,99730.00
2018-10-01T01:46:30.589Z,99733.00
2018-10-01T01:48:59.634Z,99733.00
2018-10-01T01:51:28.749Z,99738.00
2018-10-01T01:53:57.789Z,99734.00
2018-10-01T01:56:26.842Z,99740.00
2018-10-01T01:58:55.948Z,99742.00
2018-10-01T02:01:24.952Z,99744.00
2018-10-01T02:03:54.018Z,99738.00
2018-10-01T02:06:23.160Z,99743.00
2018-10-01T02:08:52.233Z,99740.00
2018-10-01T02:11:21.633Z,99737.00
2018-10-01T02:13:50.747Z,99738.00
2018-10-01T02:16:19.997Z,99742.00
2018-10-01T02:18:49.131Z,99735.00
2018-10-01T02:21:18.177Z,99742.00
2018-10-01T02:23:47.227Z,99737.00
2018-10-01T02:28:50.645Z,99730.00
2018-10-01T02:31:19.712Z,99731.00
2018-10-01T02:33:48.828Z,99730.00
2018-10-01T02:36:17.974Z,99724.00
2018-10-01T02:38:47.041Z,99731.00
2018-10-01T02:41:16.091Z,99732.00
2018-10-01T02:43:45.405Z,99737.00
2018-10-01T02:46:14.535Z,99735.00
2018-10-01T02:48:43.611Z,99737.00
2018-10-01T02:51:12.774Z,99740.00
2018-10-01T02:53:47.508Z,99746.00
2018-10-01T02:56:16.521Z,99741.00
2018-10-01T02:58:45.515Z,99742.00
2018-10-01T03:01:14.672Z,99742.00
2018-10-01T03:03:43.891Z,99742.00
2018-10-01T03:06:12.959Z,99740.00
2018-10-01T03:08:42.460Z,99743.00
2018-10-01T03:11:11.909Z,99743.00
2018-10-01T03:13:41.187Z,99738.00
2018-10-01T03:16:10.353Z,99737.00
2018-10-01T03:18:40.189Z,99740.00
2018-10-01T03:21:10.061Z,99742.00
2018-10-01T03:23:39.187Z,99742.00
2018-10-01T03:26:08.241Z,99740.00
2018-10-01T03:28:37.349Z,99746.00
2018-10-01T03:31:06.440Z,99746.00
2018-10-01T03:33:36.104Z,99748.00
2018-10-01T03:36:05.289Z,99749.00
2018-10-01T03:38:34.336Z,99747.00
2018-10-01T03:41:03.402Z,99755.00
2018-10-01T03:43:32.547Z,99751.00
2018-10-01T03:46:01.631Z,99746.00
2018-10-01T03:48:30.748Z,99744.00
2018-10-01T03:50:59.806Z,99742.00
2018-10-01T03:53:28.940Z,99742.00
2018-10-01T03:55:58.069Z,99740.00
2018-10-01T03:58:27.583Z,99744.00
2018-10-01T04:00:56.652Z,99743.00
2018-10-01T04:03:25.780Z,99741.00
2018-10-01T04:05:54.913Z,99742.00
2018-10-01T04:08:23.986Z,99740.00
2018-10-01T04:10:53.128Z,99745.00
2018-10-01T04:13:22.199Z,99747.00
2018-10-01T04:15:51.380Z,99747.00
2018-10-01T04:18:20.520Z,99754.00
2018-10-01T04:20:49.681Z,99757.00
2018-10-01T04:23:19.114Z,99761.00
2018-10-01T04:25:48.349Z,99767.00
2018-10-01T04:28:17.545Z,99765.00
2018-10-01T04:30:46.582Z,99763.00
2018-10-01T04:33:15.886Z,99776.00
2018-10-01T04:35:45.825Z,99775.00
2018-10-01T04:38:15.108Z,99779.00
2018-10-01T04:40:44.404Z,99778.00
2018-10-01T04:43:13.776Z,99779.00
2018-10-01T04:45:43.191Z,99780.00
2018-10-01T04:48:12.509Z,99788.00
2018-10-01T04:50:41.957Z,99786.00
2018-10-01T04:53:11.524Z,99790.00
2018-10-01T04:55:41.619Z,99795.00
2018-10-01T04:58:12.800Z,99795.00
2018-10-01T05:00:43.106Z,99800.00
2018-10-01T05:03:13.100Z,99794.00
2018-10-01T05:05:42.986Z,99801.00
2018-10-01T05:08:13.196Z,99799.00
2018-10-01T05:10:43.234Z,99805.00
2018-10-01T05:13:17.015Z,99810.00
2018-10-01T05:15:47.622Z,99821.00
2018-10-01T05:18:17.933Z,99820.00
2018-10-01T05:20:48.158Z,99825.00
2018-10-01T05:23:20.216Z,99827.00
2018-10-01T05:25:51.599Z,99829.00
2018-10-01T05:28:21.351Z,99833.00
2018-10-01T05:30:51.176Z,99837.00
2018-10-01T05:33:21.022Z,99837.00
2018-10-01T05:35:51.169Z,99839.00
2018-10-01T05:38:21.256Z,99837.00
2018-10-01T05:40:50.904Z,99839.00
2018-10-01T05:43:21.256Z,99837.00
2018-10-01T05:48:51.830Z,99841.00
2018-10-01T05:56:28.847Z,99858.00
2018-10-01T05:58:58.722Z,99857.00
2018-10-01T06:01:29.072Z,99860.00
2018-10-01T06:06:39.924Z,99865.00
2018-10-01T06:09:11.271Z,99872.00
2018-10-01T06:11:43.308Z,99866.00
2018-10-01T06:14:13.311Z,99877.00
2018-10-01T06:16:43.429Z,99880.00
2018-10-01T06:19:14.408Z,99880.00
2018-10-01T06:21:45.119Z,99884.00
2018-10-01T06:24:15.580Z,99881.00
2018-10-01T06:26:45.795Z,99885.00
2018-10-01T06:29:18.341Z,99891.00
2018-10-01T06:31:48.391Z,99889.00
2018-10-01T06:34:20.262Z,99885.00
2018-10-01T06:36:52.287Z,99891.00
2018-10-01T06:39:22.353Z,99893.00
2018-10-01T06:41:55.562Z,99894.00
2018-10-01T06:44:28.066Z,99894.00
2018-10-01T06:47:00.049Z,99892.00
2018-10-01T06:49:32.959Z,99899.00
2018-10-01T06:52:03.427Z,99902.00
2018-10-01T06:54:33.780Z,99906.00
2018-10-01T06:57:04.505Z,99913.00
2018-10-01T06:59:34.294Z,99911.00
2018-10-01T07:02:07.333Z,99919.00
2018-10-01T07:04:38.444Z,99918.00
2018-10-01T07:07:10.596Z,99924.00
2018-10-01T07:09:41.025Z,99923.00
2018-10-01T07:12:17.227Z,99921.00
2018-10-01T07:14:48.482Z,99920.00
2018-10-01T07:17:20.771Z,99928.00
2018-10-01T07:19:50.252Z,99935.00
2018-10-01T07:22:20.038Z,99944.00
2018-10-01T07:24:49.556Z,99942.00
2018-10-01T07:27:19.335Z,99940.00
2018-10-01T07:29:50.780Z,99945.00
2018-10-01T07:32:20.784Z,99938.00
2018-10-01T07:34:50.609Z,99948.00
2018-10-01T07:37:20.406Z,99946.00
2018-10-01T07:39:50.120Z,99950.00
2018-10-01T07:42:19.746Z,99948.00
2018-10-01T07:44:49.630Z,99956.00
2018-10-01T07:47:19.024Z,99963.00
2018-10-01T07:49:49.236Z,99968.00
2018-10-01T07:52:19.255Z,99968.00
2018-10-01T07:54:48.730Z,99977.00
2018-10-01T07:57:20.931Z,99979.00
2018-10-01T07:59:52.466Z,99984.00
2018-10-01T08:02:23.126Z,99990.00
2018-10-01T08:04:53.509Z,99991.00
2018-10-01T08:07:22.744Z,99993.00
2018-10-01T08:09:52.641Z,99997.00
2018-10-01T08:12:22.314Z,99993.00
2018-10-01T08:14:51.719Z,99999.00
2018-10-01T08:17:21.881Z,100003.00
2018-10-01T08:19:52.010Z,100013.00
2018-10-01T08:22:22.640Z,100009.00
2018-10-01T08:24:53.540Z,100016.00
2018-10-01T08:27:24.503Z,100017.00
2018-10-01T08:29:55.626Z,100023.00
2018-10-01T08:32:26.271Z,100021.00
2018-10-01T08:34:56.005Z,100022.00
2018-10-01T08:37:25.929Z,100029.00
2018-10-01T08:39:56.602Z,100029.00
2018-10-01T08:42:26.685Z,100027.00
2018-10-01T08:44:56.803Z,100030.00
2018-10-01T08:47:27.324Z,100031.00
2018-10-01T08:50:13.189Z,100038.00
2018-10-01T08:54:51.701Z,100040.00
2018-10-01T08:57:21.813Z,100046.00
2018-10-01T08:59:51.528Z,100044.00
2018-10-01T09:02:21.503Z,100042.00
2018-10-01T09:04:51.816Z,100045.00
2018-10-01T09:07:22.897Z,100046.00
2018-10-01T09:09:53.903Z,100057.00
2018-10-01T09:12:24.182Z,100054.00
2018-10-01T09:14:54.457Z,100054.00
2018-10-01T09:17:24.446Z,100060.00
2018-10-01T09:19:54.784Z,100061.00
2018-10-01T09:22:25.457Z,100065.00
2018-10-01T09:24:55.996Z,100064.00
2018-10-01T09:27:26.217Z,100070.00
2018-10-01T09:29:56.764Z,100069.00
2018-10-01T09:32:26.646Z,100073.00
2018-10-01T09:34:56.557Z,100072.00
2018-10-01T09:37:27.079Z,100070.00
2018-10-01T09:39:57.000Z,100070.00
2018-10-01T09:42:26.830Z,100071.00
2018-10-01T09:44:56.826Z,100067.00
2018-10-01T09:47:27.486Z,100068.00
2018-10-01T09:49:57.659Z,100062.00
2018-10-01T09:52:29.529Z,100057.00
2018-10-01T09:55:00.424Z,100058.00
2018-10-01T09:57:36.163Z,100054.00
2018-10-01T10:00:06.757Z,100053.00
2018-10-01T10:02:38.720Z,100061.00
2018-10-01T10:05:12.139Z,100058.00
2018-10-01T10:07:45.499Z,100059.00
2018-10-01T10:10:18.667Z,100050.00
2018-10-01T10:12:50.987Z,100053.00
2018-10-01T10:15:23.421Z,100055.00
2018-10-01T10:17:57.203Z,100050.00
2018-10-01T10:20:30.380Z,100066.00
2018-10-01T10:23:03.646Z,100063.00
2018-10-01T10:25:36.516Z,100060.00
2018-10-01T10:28:08.792Z,100068.00
2018-10-01T10:30:40.039Z,100073.00
2018-10-01T10:33:10.862Z,100072.00
2018-10-01T10:35:49.422Z,100070.00
2018-10-01T10:38:21.793Z,100077.00
2018-10-01T10:40:54.616Z,100072.00
2018-10-01T10:43:31.011Z,100078.00
2018-10-01T10:46:05.430Z,100077.00
2018-10-01T10:48:36.911Z,100079.00
2018-10-01T10:51:07.170Z,100085.00
2018-10-01T10:53:37.766Z,100086.00
2018-10-01T10:56:08.244Z,100106.00
2018-10-01T10:58:38.762Z,100106.00
2018-10-01T11:01:08.945Z,100117.00
2018-10-01T11:03:39.562Z,100117.00
2018-10-01T11:06:09.782Z,100114.00
2018-10-01T11:08:40.984Z,100112.00
2018-10-01T11:11:17.319Z,100110.00
2018-10-01T11:13:49.131Z,100112.00
2018-10-01T11:16:19.224Z,100109.00
2018-10-01T11:18:50.542Z,100109.00
2018-10-01T11:21:23.353Z,100103.00
2018-10-01T11:23:54.481Z,100104.00
2018-10-01T11:26:27.441Z,100099.00
2018-10-01T11:28:58.053Z,100108.00
2018-10-01T11:31:29.654Z,100118.00
2018-10-01T11:34:00.573Z,100131.00
2018-10-01T11:36:31.181Z,100137.00
2018-10-01T11:39:03.096Z,100137.00
2018-10-01T11:41:34.773Z,100148.00
2018-10-01T11:44:07.865Z,100154.00
2018-10-01T11:46:41.886Z,100161.00
2018-10-01T11:49:14.051Z,100162.00
2018-10-01T11:51:47.014Z,100169.00
2018-10-01T11:54:20.085Z,100181.00
2018-10-01T11:56:51.602Z,100172.00
2018-10-01T11:59:22.733Z,100174.00
2018-10-01T12:01:55.769Z,100173.00
2018-10-01T12:04:30.063Z,100181.00
2018-10-01T12:07:00.767Z,100187.00
2018-10-01T12:09:32.491Z,100179.00
2018-10-01T12:12:06.238Z,100186.00
2018-10-01T12:17:27.825Z,100183.00
2018-10-01T12:20:00.895Z,100185.00
2018-10-01T12:22:33.031Z,100185.00
2018-10-01T12:25:04.052Z,100190.00
2018-10-01T12:27:40.349Z,100181.00
2018-10-01T12:30:11.049Z,100180.00
2018-10-01T12:32:42.648Z,100176.00
2018-10-01T12:35:13.664Z,100179.00
2018-10-01T12:37:45.309Z,100175.00
2018-10-01T12:45:13.052Z,100171.00
2018-10-01T12:47:42.885Z,100181.00
2018-10-01T12:50:12.781Z,100176.00
2018-10-01T12:52:42.729Z,100182.00
2018-10-01T12:55:12.782Z,100180.00
2018-10-01T12:57:43.795Z,100167.00
2018-10-01T13:00:13.347Z,100175.00
2018-10-01T13:02:43.401Z,100174.00
2018-10-01T13:05:12.850Z,100168.00
2018-10-01T13:07:42.517Z,100157.00
2018-10-01T13:10:12.072Z,100160.00
2018-10-01T13:12:42.162Z,100165.00
2018-10-01T13:15:12.169Z,100171.00
2018-10-01T13:17:41.677Z,100160.00
2018-10-01T13:20:11.436Z,100161.00
2018-10-01T13:22:40.897Z,100161.00
2018-10-01T13:25:10.095Z,100170.00
2018-10-01T13:27:39.224Z,100168.00
2018-10-01T13:30:08.793Z,100171.00
2018-10-01T13:32:39.577Z,100172.00
2018-10-01T13:35:08.998Z,100178.00
2018-10-01T13:37:38.319Z,100176.00
2018-10-01T13:40:07.698Z,100169.00
2018-10-01T13:42:36.962Z,100172.00
2018-10-01T13:45:06.382Z,100175.00
2018-10-01T13:47:35.738Z,100177.00
2018-10-01T13:50:05.125Z,100182.00
2018-10-01T13:52:34.479Z,100180.00
2018-10-01T13:55:03.746Z,100183.00
2018-10-01T13:57:33.230Z,100174.00
2018-10-01T14:00:02.735Z,100179.00
2018-10-01T14:02:32.430Z,100176.00
2018-10-01T14:05:01.937Z,100178.00
2018-10-01T14:07:31.274Z,100176.00
2018-10-01T14:10:01.428Z,100172.00
2018-10-01T14:12:31.164Z,100180.00
2018-10-01T14:15:00.871Z,100172.00
2018-10-01T14:17:30.157Z,100180.00
2018-10-01T14:20:00.522Z,100176.00
2018-10-01T14:22:29.854Z,100172.00
2018-10-01T14:24:59.239Z,100167.00
2018-10-01T14:27:28.500Z,100169.00
2018-10-01T14:29:57.951Z,100173.00
2018-10-01T14:32:27.249Z,100168.00
2018-10-01T14:34:57.255Z,100167.00
2018-10-01T14:37:26.514Z,100171.00
2018-10-01T14:39:55.907Z,100174.00
2018-10-01T14:42:25.220Z,100172.00
2018-10-01T14:44:54.864Z,100175.00
2018-10-01T14:47:24.055Z,100184.00
2018-10-01T14:49:53.227Z,100184.00
2018-10-01T14:52:23.608Z,100186.00
2018-10-01T14:54:53.206Z,100191.00
2018-10-01T14:57:22.591Z,100198.00
2018-10-01T14:59:52.499Z,100192.00
2018-10-01T15:02:21.920Z,100198.00
2018-10-01T15:04:51.140Z,100198.00
2018-10-01T15:07:20.167Z,100194.00
2018-10-01T15:09:49.545Z,100212.00
2018-10-01T15:12:18.768Z,100213.00
2018-10-01T15:14:48.231Z,100213.00
2018-10-01T15:17:17.578Z,100217.00
2018-10-01T15:19:47.060Z,100217.00
2018-10-01T15:22:16.609Z,100225.00
2018-10-01T15:24:46.294Z,100218.00
2018-10-01T15:27:15.745Z,100223.00
2018-10-01T15:29:45.463Z,100227.00
2018-10-01T15:32:14.967Z,100226.00
2018-10-01T15:34:44.516Z,100232.00
2018-10-01T15:37:14.186Z,100230.00
2018-10-01T15:39:43.623Z,100235.00
2018-10-01T15:42:13.456Z,100257.00
2018-10-01T15:44:42.874Z,100255.00
2018-10-01T15:47:12.923Z,100268.00
2018-10-01T15:49:42.661Z,100267.00
2018-10-01T15:52:12.659Z,100280.00
2018-10-01T15:54:42.345Z,100286.00
2018-10-01T15:57:11.880Z,100283.00
2018-10-01T15:59:41.499Z,100292.00
2018-10-01T16:02:10.871Z,100285.00
2018-10-01T16:04:40.772Z,100296.00
2018-10-01T16:07:10.251Z,100291.00
2018-10-01T16:09:39.857Z,100293.00
2018-10-01T16:12:09.785Z,100293.00
2018-10-01T16:14:39.090Z,100293.00
2018-10-01T16:17:09.510Z,100296.00
2018-10-01T16:19:39.471Z,100297.00
2018-10-01T16:22:08.805Z,100303.00
2018-10-01T16:24:38.743Z,100304.00
2018-10-01T16:27:09.364Z,100302.00
2018-10-01T16:29:38.800Z,100303.00
2018-10-01T16:32:08.200Z,100313.00
2018-10-01T16:34:37.508Z,100312.00
2018-10-01T16:37:07.031Z,100326.00
2018-10-01T16:39:37.331Z,100322.00
2018-10-01T16:42:06.926Z,100322.00
2018-10-01T16:44:37.213Z,100329.00
2018-10-01T16:47:06.465Z,100333.00
2018-10-01T16:49:36.202Z,100335.00
2018-10-01T16:52:05.577Z,100334.00
2018-10-01T16:54:35.051Z,100334.00
2018-10-01T16:57:04.590Z,100340.00
2018-10-01T16:59:33.848Z,100339.00
2018-10-01T17:02:03.132Z,100345.00
2018-10-01T17:04:32.522Z,100355.00
2018-10-01T17:07:01.856Z,100357.00
2018-10-01T17:09:31.399Z,100359.00
2018-10-01T17:12:00.758Z,100360.00
2018-10-01T17:14:30.573Z,100358.00
2018-10-01T17:16:59.940Z,100372.00
2018-10-01T17:19:29.362Z,100380.00
2018-10-01T17:21:59.551Z,100375.00
2018-10-01T17:24:31.732Z,100378.00
2018-10-01T17:27:02.624Z,100386.00
2018-10-01T17:29:32.113Z,100389.00
2018-10-01T17:32:01.515Z,100395.00
2018-10-01T17:34:30.933Z,100399.00
2018-10-01T17:37:00.645Z,100411.00
2018-10-01T17:39:30.088Z,100410.00
2018-10-01T17:41:59.662Z,100407.00
2018-10-01T17:44:29.305Z,100410.00
2018-10-01T17:46:58.591Z,100419.00
2018-10-01T17:49:28.582Z,100421.00
2018-10-01T17:51:57.796Z,100429.00
2018-10-01T17:54:27.185Z,100429.00
2018-10-01T17:56:56.654Z,100431.00
2018-10-01T17:59:26.501Z,100428.00
2018-10-01T18:01:57.149Z,100433.00
2018-10-01T18:04:26.456Z,100435.00
2018-10-01T18:06:57.814Z,100434.00
2018-10-01T18:09:27.468Z,100444.00
2018-10-01T18:11:57.555Z,100442.00
2018-10-01T18:14:26.804Z,100443.00
2018-10-01T18:16:56.120Z,100443.00
2018-10-01T18:19:26.610Z,100451.00
2018-10-01T18:21:55.982Z,100446.00
2018-10-01T18:24:26.220Z,100449.00
2018-10-01T18:26:56.174Z,100454.00
2018-10-01T18:29:25.629Z,100455.00
2018-10-01T18:31:55.112Z,100462.00
2018-10-01T18:34:24.449Z,100458.00
2018-10-01T18:36:54.290Z,100459.00
2018-10-01T18:39:27.764Z,100459.00
2018-10-01T18:41:58.235Z,100460.00
2018-10-01T18:44:27.951Z,100449.00
2018-10-01T18:46:57.944Z,100452.00
2018-10-01T18:49:27.384Z,100459.00
2018-10-01T18:51:57.003Z,100460.00
2018-10-01T18:54:26.593Z,100452.00
2018-10-01T18:56:56.896Z,100450.00
2018-10-01T18:59:27.065Z,100457.00
2018-10-01T19:01:57.784Z,100463.00
2018-10-01T19:04:26.940Z,100457.00
2018-10-01T19:06:56.296Z,100462.00
2018-10-01T19:09:26.684Z,100458.00
2018-10-01T19:11:56.512Z,100456.00
2018-10-01T19:14:26.605Z,100469.00
2018-10-01T19:16:56.152Z,100461.00
2018-10-01T19:19:26.382Z,100462.00
2018-10-01T19:21:55.630Z,100464.00
2018-10-01T19:24:25.678Z,100463.00
2018-10-01T19:26:54.773Z,100470.00
2018-10-01T19:29:23.900Z,100473.00
2018-10-01T19:31:53.496Z,100470.00
2018-10-01T19:34:22.820Z,100475.00
2018-10-01T19:36:52.123Z,100480.00
2018-10-01T19:39:21.395Z,100477.00
2018-10-01T19:41:50.661Z,100479.00
2018-10-01T19:44:19.655Z,100475.00
2018-10-01T19:46:49.242Z,100479.00
2018-10-01T19:49:18.797Z,100474.00
2018-10-01T19:51:49.619Z,100472.00
2018-10-01T19:54:20.609Z,100474.00
2018-10-01T19:56:52.915Z,100475.00
2018-10-01T19:59:22.942Z,100478.00
2018-10-01T20:01:53.246Z,100478.00
2018-10-01T20:04:26.905Z,100477.00
2018-10-01T20:06:58.524Z,100477.00
2018-10-01T20:09:31.836Z,100477.00
2018-10-01T20:12:01.064Z,100488.00
2018-10-01T20:14:30.277Z,100493.00
2018-10-01T20:16:59.557Z,100496.00
2018-10-01T20:19:28.777Z,100491.00
2018-10-01T20:21:58.991Z,100488.00
2018-10-01T20:24:29.873Z,100486.00
2018-10-01T20:27:00.301Z,100487.00
2018-10-01T20:29:30.475Z,100486.00
2018-10-01T20:31:59.686Z,100488.00
2018-10-01T20:34:28.700Z,100489.00
2018-10-01T20:36:57.921Z,100484.00
2018-10-01T20:39:27.480Z,100493.00
2018-10-01T20:41:57.422Z,100492.00
2018-10-01T20:44:27.567Z,100492.00
2018-10-01T20:46:57.250Z,100490.00
2018-10-01T20:49:26.433Z,100492.00
2018-10-01T20:51:55.764Z,100490.00
2018-10-01T20:54:24.909Z,100486.00
2018-10-01T20:56:54.201Z,100489.00
2018-10-01T20:59:24.548Z,100492.00
2018-10-01T21:01:53.726Z,100491.00
2018-10-01T21:04:22.871Z,100489.00
2018-10-01T21:06:52.041Z,100489.00
2018-10-01T21:09:21.740Z,100490.00
2018-10-01T21:11:51.341Z,100492.00
2018-10-01T21:14:20.699Z,100490.00
2018-10-01T21:16:49.733Z,100495.00
2018-10-01T21:19:19.068Z,100488.00
2018-10-01T21:21:48.235Z,100485.00
2018-10-01T21:24:17.454Z,100486.00
2018-10-01T21:26:46.890Z,100483.00
2018-10-01T21:29:16.105Z,100482.00
2018-10-01T21:31:45.302Z,100481.00
2018-10-01T21:34:18.041Z,100483.00
2018-10-01T21:36:47.145Z,100481.00
2018-10-01T21:39:33.989Z,100481.00
2018-10-01T21:42:03.256Z,100484.00
2018-10-01T21:44:32.464Z,100484.00
2018-10-01T21:47:01.596Z,100484.00
2018-10-01T21:49:30.788Z,100485.00
2018-10-01T21:51:59.968Z,100484.00
2018-10-01T21:54:29.085Z,100482.00
2018-10-01T21:56:58.219Z,100478.00
2018-10-01T21:59:27.315Z,100481.00
2018-10-01T22:01:58.281Z,100480.00
2018-10-01T22:04:27.496Z,100479.00
2018-10-01T22:06:56.532Z,100481.00
2018-10-01T22:09:25.745Z,100479.00
2018-10-01T22:11:54.806Z,100474.00
2018-10-01T22:14:23.972Z,100474.00
2018-10-01T22:16:53.161Z,100485.00
2018-10-01T22:19:22.246Z,100481.00
2018-10-01T22:21:51.410Z,100479.00
2018-10-01T22:24:21.648Z,100471.00
2018-10-01T22:26:50.925Z,100485.00
2018-10-01T22:29:20.133Z,100476.00
2018-10-01T22:31:49.353Z,100473.00
2018-10-01T22:34:18.401Z,100470.00
2018-10-01T22:36:47.541Z,100473.00
2018-10-01T22:39:16.664Z,100470.00
2018-10-01T22:41:45.865Z,100470.00
2018-10-01T22:44:15.024Z,100473.00
2018-10-01T22:46:44.237Z,100470.00
2018-10-01T22:49:13.479Z,100471.00
2018-10-01T22:51:42.580Z,100471.00
2018-10-01T22:54:11.777Z,100474.00
2018-10-01T22:56:41.012Z,100476.00
2018-10-01T22:59:10.187Z,100477.00
2018-10-01T23:01:39.348Z,100475.00
2018-10-01T23:04:09.289Z,100470.00
2018-10-01T23:06:40.074Z,100469.00
2018-10-01T23:09:10.492Z,100463.00
2018-10-01T23:14:20.815Z,100461.00
2018-10-01T23:16:52.114Z,100466.00
2018-10-01T23:19:22.990Z,100465.00
2018-10-01T23:21:55.442Z,100462.00
2018-10-01T23:24:27.100Z,100463.00
2018-10-01T23:26:56.863Z,100462.00
2018-10-01T23:29:29.492Z,100461.00
2018-10-01T23:32:00.215Z,100467.00
2018-10-01T23:34:30.793Z,100461.00
2018-10-01T23:37:01.508Z,100465.00
2018-10-01T23:39:32.158Z,100463.00
2018-10-01T23:42:03.119Z,100456.00
2018-10-01T23:44:33.269Z,100461.00
2018-10-01T23:47:05.279Z,100459.00
2018-10-01T23:49:36.476Z,100460.00
2018-10-01T23:52:08.374Z,100457.00
2018-10-01T23:54:39.625Z,100457.00
2018-10-01T23:57:11.384Z,100458.00
2018-10-01T23:59:42.092Z,100460.00
